createdAt,value
2018-05-25T00:00:46.329Z,1007.85
2018-05-25T00:01:46.351Z,1007.85
2018-05-25T00:02:46.369Z,1007.84
2018-05-25T00:03:46.402Z,1007.78
2018-05-25T00:04:46.420Z,1007.83
2018-05-25T00:05:46.440Z,1007.81
2018-05-25T00:06:46.459Z,1007.77
2018-05-25T00:07:46.485Z,1007.79
2018-05-25T00:08:46.504Z,1007.77
2018-05-25T00:09:46.535Z,1007.74
2018-05-25T00:10:46.553Z,1007.76
2018-05-25T00:11:46.573Z,1007.74
2018-05-25T00:12:46.603Z,1007.77
2018-05-25T00:13:46.618Z,1007.77
2018-05-25T00:14:46.640Z,1007.78
2018-05-25T00:15:46.668Z,1007.8
2018-05-25T00:16:46.688Z,1007.79
2018-05-25T00:17:46.713Z,1007.78
2018-05-25T00:18:46.730Z,1007.77
2018-05-25T00:19:46.757Z,1007.82
2018-05-25T00:20:46.780Z,1007.83
2018-05-25T00:21:46.804Z,1007.86
2018-05-25T00:22:53.237Z,1007.86
2018-05-25T00:23:46.852Z,1007.86
2018-05-25T00:24:46.877Z,1007.88
2018-05-25T00:25:46.898Z,1007.86
2018-05-25T00:26:46.912Z,1007.87
2018-05-25T00:27:46.939Z,1007.88
2018-05-25T00:28:46.960Z,1007.88
2018-05-25T00:29:46.982Z,1007.86
2018-05-25T00:30:47.009Z,1007.88
2018-05-25T00:31:47.028Z,1007.89
2018-05-25T00:32:47.052Z,1007.9
2018-05-25T00:33:47.069Z,1007.86
2018-05-25T00:34:47.096Z,1007.86
2018-05-25T00:35:47.118Z,1007.86
2018-05-25T00:36:47.140Z,1007.89
2018-05-25T00:37:47.159Z,1007.89
2018-05-25T00:38:47.187Z,1007.85
2018-05-25T00:39:47.208Z,1007.83
2018-05-25T00:40:47.228Z,1007.84
2018-05-25T00:41:47.249Z,1007.85
2018-05-25T00:42:47.277Z,1007.83
2018-05-25T00:43:47.298Z,1007.8
2018-05-25T00:44:47.320Z,1007.81
2018-05-25T00:45:47.351Z,1007.79
2018-05-25T00:46:47.364Z,1007.77
2018-05-25T00:47:47.391Z,1007.75
2018-05-25T00:48:47.407Z,1007.76
2018-05-25T00:49:47.437Z,1007.7
2018-05-25T00:50:47.462Z,1007.72
2018-05-25T00:51:47.474Z,1007.67
2018-05-25T00:52:47.503Z,1007.7
2018-05-25T00:53:47.524Z,1007.71
2018-05-25T00:54:47.542Z,1007.69
2018-05-25T00:55:47.568Z,1007.69
2018-05-25T00:56:47.590Z,1007.7
2018-05-25T00:57:47.613Z,1007.68
2018-05-25T00:58:47.637Z,1007.7
2018-05-25T00:59:47.654Z,1007.68
2018-05-25T01:00:47.684Z,1007.7
2018-05-25T01:01:47.702Z,1007.69
2018-05-25T01:02:47.725Z,1007.72
2018-05-25T01:03:47.751Z,1007.74
2018-05-25T01:04:47.765Z,1007.7
2018-05-25T01:05:47.795Z,1007.71
2018-05-25T01:06:47.814Z,1007.72
2018-05-25T01:07:47.836Z,1007.72
2018-05-25T01:08:47.860Z,1007.73
2018-05-25T01:09:47.883Z,1007.74
2018-05-25T01:10:47.904Z,1007.77
2018-05-25T01:11:47.926Z,1007.78
2018-05-25T01:12:47.945Z,1007.78
2018-05-25T01:13:47.972Z,1007.77
2018-05-25T01:14:47.993Z,1007.74
2018-05-25T01:15:48.016Z,1007.7
2018-05-25T01:16:48.042Z,1007.73
2018-05-25T01:17:48.057Z,1007.69
2018-05-25T01:18:48.083Z,1007.69
2018-05-25T01:19:48.108Z,1007.7
2018-05-25T01:20:48.124Z,1007.68
2018-05-25T01:21:48.150Z,1007.69
2018-05-25T01:22:48.169Z,1007.68
2018-05-25T01:23:48.192Z,1007.66
2018-05-25T01:24:48.221Z,1007.65
2018-05-25T01:25:48.240Z,1007.63
2018-05-25T01:26:48.267Z,1007.64
2018-05-25T01:27:48.284Z,1007.62
2018-05-25T01:28:48.303Z,1007.61
2018-05-25T01:29:48.332Z,1007.61
2018-05-25T01:30:48.357Z,1007.56
2018-05-25T01:31:48.372Z,1007.54
2018-05-25T01:32:48.397Z,1007.6
2018-05-25T01:33:48.414Z,1007.56
2018-05-25T01:34:48.438Z,1007.53
2018-05-25T01:35:48.470Z,1007.51
2018-05-25T01:36:48.487Z,1007.51
2018-05-25T01:37:48.507Z,1007.53
2018-05-25T01:38:48.529Z,1007.53
2018-05-25T01:39:48.548Z,1007.58
2018-05-25T01:40:48.579Z,1007.6
2018-05-25T01:41:48.592Z,1007.6
2018-05-25T01:42:48.621Z,1007.62
2018-05-25T01:43:48.636Z,1007.63
2018-05-25T01:44:48.661Z,1007.61
2018-05-25T01:45:48.687Z,1007.63
2018-05-25T01:46:48.702Z,1007.61
2018-05-25T01:47:48.724Z,1007.67
2018-05-25T01:48:48.747Z,1007.65
2018-05-25T01:49:48.773Z,1007.64
2018-05-25T01:50:48.794Z,1007.65
2018-05-25T01:51:48.822Z,1007.65
2018-05-25T01:52:48.839Z,1007.64
2018-05-25T01:53:48.867Z,1007.67
2018-05-25T01:54:48.885Z,1007.63
2018-05-25T01:55:48.902Z,1007.59
2018-05-25T01:56:48.929Z,1007.65
2018-05-25T01:57:48.954Z,1007.6
2018-05-25T01:58:48.968Z,1007.63
2018-05-25T01:59:49.000Z,1007.63
2018-05-25T02:00:49.015Z,1007.59
2018-05-25T02:01:49.037Z,1007.6
2018-05-25T02:02:49.061Z,1007.59
2018-05-25T02:03:49.090Z,1007.63
2018-05-25T02:04:49.108Z,1007.59
2018-05-25T02:05:49.128Z,1007.59
2018-05-25T02:06:49.152Z,1007.63
2018-05-25T02:07:49.176Z,1007.6
2018-05-25T02:08:49.198Z,1007.6
2018-05-25T02:09:49.214Z,1007.58
2018-05-25T02:10:49.241Z,1007.58
2018-05-25T02:11:49.259Z,1007.55
2018-05-25T02:12:49.277Z,1007.58
2018-05-25T02:13:49.303Z,1007.55
2018-05-25T02:14:49.322Z,1007.57
2018-05-25T02:15:49.350Z,1007.58
2018-05-25T02:16:49.371Z,1007.57
2018-05-25T02:17:49.395Z,1007.54
2018-05-25T02:18:49.418Z,1007.55
2018-05-25T02:19:49.439Z,1007.52
2018-05-25T02:20:49.460Z,1007.52
2018-05-25T02:21:49.484Z,1007.54
2018-05-25T02:22:49.502Z,1007.54
2018-05-25T02:23:49.529Z,1007.49
2018-05-25T02:24:49.546Z,1007.52
2018-05-25T02:25:49.577Z,1007.52
2018-05-25T02:26:49.585Z,1007.53
2018-05-25T02:27:49.610Z,1007.54
2018-05-25T02:28:49.637Z,1007.52
2018-05-25T02:29:49.651Z,1007.53
2018-05-25T02:30:49.673Z,1007.51
2018-05-25T02:31:49.701Z,1007.56
2018-05-25T02:32:49.737Z,1007.58
2018-05-25T02:33:49.753Z,1007.57
2018-05-25T02:34:49.768Z,1007.55
2018-05-25T02:35:49.787Z,1007.55
2018-05-25T02:36:49.813Z,1007.6
2018-05-25T02:37:49.835Z,1007.58
2018-05-25T02:38:49.853Z,1007.57
2018-05-25T02:39:49.874Z,1007.63
2018-05-25T02:40:49.911Z,1007.61
2018-05-25T02:41:49.919Z,1007.61
2018-05-25T02:42:49.943Z,1007.63
2018-05-25T02:43:49.961Z,1007.61
2018-05-25T02:44:49.979Z,1007.58
2018-05-25T02:45:50.007Z,1007.63
2018-05-25T02:46:50.024Z,1007.62
2018-05-25T02:47:50.050Z,1007.59
2018-05-25T02:48:50.066Z,1007.58
2018-05-25T02:49:50.094Z,1007.6
2018-05-25T02:50:50.113Z,1007.58
2018-05-25T02:51:50.142Z,1007.57
2018-05-25T02:52:50.159Z,1007.53
2018-05-25T02:53:50.182Z,1007.53
2018-05-25T02:54:50.203Z,1007.54
2018-05-25T02:55:50.221Z,1007.58
2018-05-25T02:56:50.247Z,1007.51
2018-05-25T02:57:50.270Z,1007.59
2018-05-25T02:58:50.286Z,1007.59
2018-05-25T02:59:50.320Z,1007.59
2018-05-25T03:00:50.334Z,1007.58
2018-05-25T03:01:50.356Z,1007.6
2018-05-25T03:02:50.374Z,1007.58
2018-05-25T03:03:50.408Z,1007.59
2018-05-25T03:04:50.427Z,1007.57
2018-05-25T03:05:50.443Z,1007.56
2018-05-25T03:06:50.472Z,1007.55
2018-05-25T03:07:50.535Z,1007.57
2018-05-25T03:08:50.508Z,1007.55
2018-05-25T03:09:50.527Z,1007.55
2018-05-25T03:10:50.550Z,1007.55
2018-05-25T03:11:50.569Z,1007.61
2018-05-25T03:12:50.594Z,1007.58
2018-05-25T03:13:50.619Z,1007.58
2018-05-25T03:14:50.645Z,1007.6
2018-05-25T03:15:50.657Z,1007.61
2018-05-25T03:16:50.695Z,1007.57
2018-05-25T03:17:50.757Z,1007.61
2018-05-25T03:18:50.725Z,1007.61
2018-05-25T03:19:50.753Z,1007.61
2018-05-25T03:20:50.767Z,1007.59
2018-05-25T03:21:50.789Z,1007.66
2018-05-25T03:22:50.813Z,1007.6
2018-05-25T03:23:50.831Z,1007.65
2018-05-25T03:24:50.850Z,1007.64
2018-05-25T03:25:50.873Z,1007.67
2018-05-25T03:26:50.905Z,1007.66
2018-05-25T03:27:50.916Z,1007.62
2018-05-25T03:28:50.941Z,1007.64
2018-05-25T03:29:50.962Z,1007.61
2018-05-25T03:30:50.984Z,1007.6
2018-05-25T03:31:51.007Z,1007.61
2018-05-25T03:32:51.032Z,1007.6
2018-05-25T03:33:51.050Z,1007.57
2018-05-25T03:34:51.075Z,1007.56
2018-05-25T03:35:51.095Z,1007.6
2018-05-25T03:36:51.115Z,1007.63
2018-05-25T03:37:51.140Z,1007.61
2018-05-25T03:38:51.161Z,1007.65
2018-05-25T03:39:51.182Z,1007.64
2018-05-25T03:40:51.203Z,1007.65
2018-05-25T03:41:51.220Z,1007.63
2018-05-25T03:42:51.243Z,1007.67
2018-05-25T03:43:51.268Z,1007.68
2018-05-25T03:44:51.282Z,1007.69
2018-05-25T03:45:51.303Z,1007.7
2018-05-25T03:46:51.329Z,1007.67
2018-05-25T03:47:51.347Z,1007.71
2018-05-25T03:48:51.369Z,1007.7
2018-05-25T03:49:51.399Z,1007.67
2018-05-25T03:50:51.417Z,1007.63
2018-05-25T03:51:51.438Z,1007.65
2018-05-25T03:52:51.458Z,1007.62
2018-05-25T03:53:51.481Z,1007.6
2018-05-25T03:54:51.507Z,1007.56
2018-05-25T03:55:51.525Z,1007.59
2018-05-25T03:56:51.544Z,1007.57
2018-05-25T03:57:51.562Z,1007.56
2018-05-25T03:58:51.590Z,1007.53
2018-05-25T03:59:51.614Z,1007.52
2018-05-25T04:00:51.628Z,1007.51
2018-05-25T04:01:51.651Z,1007.5
2018-05-25T04:02:51.679Z,1007.52
2018-05-25T04:03:51.694Z,1007.49
2018-05-25T04:04:51.714Z,1007.5
2018-05-25T04:05:51.741Z,1007.49
2018-05-25T04:06:51.762Z,1007.46
2018-05-25T04:07:51.785Z,1007.47
2018-05-25T04:08:51.808Z,1007.53
2018-05-25T04:09:51.826Z,1007.56
2018-05-25T04:10:51.845Z,1007.56
2018-05-25T04:11:51.871Z,1007.59
2018-05-25T04:12:51.890Z,1007.61
2018-05-25T04:13:51.916Z,1007.56
2018-05-25T04:14:51.937Z,1007.57
2018-05-25T04:15:51.950Z,1007.57
2018-05-25T04:16:51.980Z,1007.56
2018-05-25T04:17:52.000Z,1007.53
2018-05-25T04:18:52.017Z,1007.53
2018-05-25T04:19:52.039Z,1007.5
2018-05-25T04:20:52.061Z,1007.47
2018-05-25T04:21:52.083Z,1007.48
2018-05-25T04:22:52.109Z,1007.52
2018-05-25T04:23:52.180Z,1007.53
2018-05-25T04:24:52.152Z,1007.53
2018-05-25T04:25:52.167Z,1007.53
2018-05-25T04:26:52.191Z,1007.5
2018-05-25T04:27:52.267Z,1007.51
2018-05-25T04:28:52.235Z,1007.55
2018-05-25T04:29:52.257Z,1007.58
2018-05-25T04:30:52.279Z,1007.56
2018-05-25T04:31:52.299Z,1007.63
2018-05-25T04:32:52.321Z,1007.61
2018-05-25T04:33:52.341Z,1007.63
2018-05-25T04:34:52.359Z,1007.67
2018-05-25T04:35:52.387Z,1007.65
2018-05-25T04:36:52.407Z,1007.67
2018-05-25T04:37:52.423Z,1007.64
2018-05-25T04:38:52.500Z,1007.63
2018-05-25T04:39:52.472Z,1007.64
2018-05-25T04:40:52.487Z,1007.68
2018-05-25T04:41:52.517Z,1007.66
2018-05-25T04:42:52.538Z,1007.63
2018-05-25T04:43:52.555Z,1007.66
2018-05-25T04:44:52.583Z,1007.65
2018-05-25T04:45:52.601Z,1007.62
2018-05-25T04:46:52.624Z,1007.64
2018-05-25T04:47:52.642Z,1007.68
2018-05-25T04:48:52.659Z,1007.63
2018-05-25T04:49:52.687Z,1007.66
2018-05-25T04:50:52.706Z,1007.65
2018-05-25T04:51:52.727Z,1007.61
2018-05-25T04:52:52.749Z,1007.62
2018-05-25T04:53:52.772Z,1007.56
2018-05-25T04:54:52.794Z,1007.59
2018-05-25T04:55:52.815Z,1007.6
2018-05-25T04:56:52.839Z,1007.55
2018-05-25T04:57:52.852Z,1007.54
2018-05-25T04:58:52.914Z,1007.56
2018-05-25T04:59:52.904Z,1007.55
2018-05-25T05:00:52.925Z,1007.58
2018-05-25T05:01:52.939Z,1007.61
2018-05-25T05:02:52.964Z,1007.61
2018-05-25T05:03:52.989Z,1007.63
2018-05-25T05:04:53.021Z,1007.59
2018-05-25T05:05:53.029Z,1007.59
2018-05-25T05:06:53.055Z,1007.61
2018-05-25T05:07:53.073Z,1007.61
2018-05-25T05:08:53.140Z,1007.62
2018-05-25T05:09:53.116Z,1007.63
2018-05-25T05:10:53.139Z,1007.65
2018-05-25T05:11:53.154Z,1007.66
2018-05-25T05:12:53.185Z,1007.67
2018-05-25T05:13:53.200Z,1007.67
2018-05-25T05:14:53.261Z,1007.64
2018-05-25T05:15:53.242Z,1007.64
2018-05-25T05:16:53.262Z,1007.64
2018-05-25T05:17:53.289Z,1007.65
2018-05-25T05:18:53.308Z,1007.63
2018-05-25T05:19:53.376Z,1007.62
2018-05-25T05:20:53.411Z,1007.67
2018-05-25T05:21:53.377Z,1007.67
2018-05-25T05:22:53.394Z,1007.68
2018-05-25T05:23:53.418Z,1007.71
2018-05-25T05:24:53.442Z,1007.72
2018-05-25T05:25:53.457Z,1007.69
2018-05-25T05:26:53.477Z,1007.69
2018-05-25T05:27:53.504Z,1007.66
2018-05-25T05:28:53.529Z,1007.69
2018-05-25T05:29:53.550Z,1007.69
2018-05-25T05:30:53.573Z,1007.71
2018-05-25T05:31:53.596Z,1007.71
2018-05-25T05:32:53.606Z,1007.76
2018-05-25T05:33:53.635Z,1007.73
2018-05-25T05:34:53.652Z,1007.77
2018-05-25T05:35:53.672Z,1007.77
2018-05-25T05:36:53.697Z,1007.8
2018-05-25T05:37:53.719Z,1007.74
2018-05-25T05:38:53.739Z,1007.77
2018-05-25T05:39:53.764Z,1007.81
2018-05-25T05:40:53.797Z,1007.86
2018-05-25T05:41:53.805Z,1007.8
2018-05-25T05:42:53.827Z,1007.89
2018-05-25T05:43:53.844Z,1007.84
2018-05-25T05:44:53.870Z,1007.82
2018-05-25T05:45:53.892Z,1007.85
2018-05-25T05:46:53.911Z,1007.89
2018-05-25T05:47:53.940Z,1007.82
2018-05-25T05:48:53.954Z,1007.85
2018-05-25T05:49:53.981Z,1007.91
2018-05-25T05:50:54.058Z,1007.83
2018-05-25T05:51:54.024Z,1007.85
2018-05-25T05:52:54.051Z,1007.86
2018-05-25T05:53:54.073Z,1007.85
2018-05-25T05:54:54.089Z,1007.84
2018-05-25T05:55:54.112Z,1007.85
2018-05-25T05:56:54.131Z,1007.83
2018-05-25T05:57:54.152Z,1007.82
2018-05-25T05:58:54.175Z,1007.83
2018-05-25T05:59:54.199Z,1007.83
2018-05-25T06:00:54.221Z,1007.84
2018-05-25T06:01:54.241Z,1007.85
2018-05-25T06:02:54.261Z,1007.84
2018-05-25T06:03:54.292Z,1007.84
2018-05-25T06:04:54.308Z,1007.82
2018-05-25T06:05:54.333Z,1007.85
2018-05-25T06:06:54.347Z,1007.86
2018-05-25T06:07:54.372Z,1007.84
2018-05-25T06:08:54.396Z,1007.83
2018-05-25T06:09:54.418Z,1007.85
2018-05-25T06:10:54.440Z,1007.83
2018-05-25T06:11:54.460Z,1007.84
2018-05-25T06:12:54.478Z,1007.79
2018-05-25T06:13:54.503Z,1007.79
2018-05-25T06:14:54.527Z,1007.82
2018-05-25T06:15:54.652Z,1007.84
2018-05-25T06:16:54.590Z,1007.81
2018-05-25T06:17:54.640Z,1007.85
2018-05-25T06:18:54.642Z,1007.83
2018-05-25T06:19:54.822Z,1007.89
2018-05-25T06:20:54.654Z,1007.85
2018-05-25T06:21:54.685Z,1007.8
2018-05-25T06:22:54.706Z,1007.81
2018-05-25T06:23:54.723Z,1007.77
2018-05-25T06:24:54.799Z,1007.76
2018-05-25T06:25:54.773Z,1007.77
2018-05-25T06:26:54.790Z,1007.76
2018-05-25T06:27:54.830Z,1007.76
2018-05-25T06:28:54.835Z,1007.8
2018-05-25T06:29:54.864Z,1007.79
2018-05-25T06:30:54.880Z,1007.77
2018-05-25T06:31:54.903Z,1007.76
2018-05-25T06:32:54.921Z,1007.72
2018-05-25T06:33:54.948Z,1007.71
2018-05-25T06:34:54.968Z,1007.73
2018-05-25T06:35:54.991Z,1007.72
2018-05-25T06:36:55.018Z,1007.68
2018-05-25T06:37:55.040Z,1007.72
2018-05-25T06:38:55.059Z,1007.69
2018-05-25T06:39:55.078Z,1007.74
2018-05-25T06:40:55.112Z,1007.76
2018-05-25T06:41:55.124Z,1007.75
2018-05-25T06:42:55.143Z,1007.77
2018-05-25T06:43:55.170Z,1007.79
2018-05-25T06:44:55.197Z,1007.78
2018-05-25T06:45:55.210Z,1007.79
2018-05-25T06:46:55.239Z,1007.76
2018-05-25T06:47:55.263Z,1007.84
2018-05-25T06:48:55.285Z,1007.86
2018-05-25T06:49:55.349Z,1007.9
2018-05-25T06:50:55.326Z,1007.95
2018-05-25T06:51:55.348Z,1007.98
2018-05-25T06:52:55.372Z,1007.97
2018-05-25T06:53:55.397Z,1008.01
2018-05-25T06:54:55.417Z,1007.95
2018-05-25T06:55:55.437Z,1007.99
2018-05-25T06:56:55.461Z,1007.99
2018-05-25T06:57:55.551Z,1007.98
2018-05-25T06:58:55.509Z,1008.01
2018-05-25T06:59:55.532Z,1007.98
2018-05-25T07:00:55.550Z,1008
2018-05-25T07:01:55.569Z,1007.95
2018-05-25T07:02:55.592Z,1007.96
2018-05-25T07:03:55.634Z,1007.98
2018-05-25T07:04:55.639Z,1007.99
2018-05-25T07:05:55.663Z,1007.99
2018-05-25T07:06:55.683Z,1007.98
2018-05-25T07:07:55.708Z,1007.95
2018-05-25T07:08:55.736Z,1007.97
2018-05-25T07:09:55.753Z,1007.96
2018-05-25T07:10:55.778Z,1008
2018-05-25T07:11:55.795Z,1008
2018-05-25T07:12:55.821Z,1008
2018-05-25T07:13:55.845Z,1008.02
2018-05-25T07:14:55.920Z,1008.02
2018-05-25T07:15:55.890Z,1008.03
2018-05-25T07:16:55.927Z,1008.06
2018-05-25T07:17:55.935Z,1008.05
2018-05-25T07:18:55.962Z,1008.07
2018-05-25T07:19:55.981Z,1008.08
2018-05-25T07:20:56.004Z,1008.05
2018-05-25T07:21:56.028Z,1008.07
2018-05-25T07:22:56.053Z,1008.02
2018-05-25T07:23:56.076Z,1008.05
2018-05-25T07:24:56.095Z,1008.04
2018-05-25T07:25:56.113Z,1008.06
2018-05-25T07:26:56.138Z,1008.06
2018-05-25T07:27:56.163Z,1008.02
2018-05-25T07:28:56.186Z,1008.03
2018-05-25T07:29:56.207Z,1008.06
2018-05-25T07:30:56.234Z,1008.02
2018-05-25T07:31:56.253Z,1008.05
2018-05-25T07:32:56.279Z,1008.07
2018-05-25T07:33:56.303Z,1008.05
2018-05-25T07:34:56.322Z,1008.1
2018-05-25T07:35:56.343Z,1008.11
2018-05-25T07:36:56.369Z,1008.08
2018-05-25T07:37:56.395Z,1008.1
2018-05-25T07:38:56.416Z,1008.1
2018-05-25T07:39:56.444Z,1008.11
2018-05-25T07:40:56.458Z,1008.09
2018-05-25T07:41:56.481Z,1008.12
2018-05-25T07:42:56.515Z,1008.15
2018-05-25T07:43:56.532Z,1008.16
2018-05-25T07:44:56.550Z,1008.22
2018-05-25T07:45:56.582Z,1008.19
2018-05-25T07:46:56.598Z,1008.18
2018-05-25T07:47:56.634Z,1008.22
2018-05-25T07:48:56.650Z,1008.19
2018-05-25T07:49:56.667Z,1008.16
2018-05-25T07:50:56.691Z,1008.2
2018-05-25T07:51:56.722Z,1008.19
2018-05-25T07:52:56.744Z,1008.2
2018-05-25T07:53:56.772Z,1008.2
2018-05-25T07:54:56.787Z,1008.2
2018-05-25T07:55:56.811Z,1008.21
2018-05-25T07:56:56.838Z,1008.19
2018-05-25T07:57:56.855Z,1008.19
2018-05-25T07:58:56.876Z,1008.17
2018-05-25T07:59:56.906Z,1008.15
2018-05-25T08:00:56.925Z,1008.21
2018-05-25T08:01:56.949Z,1008.23
2018-05-25T08:02:56.970Z,1008.18
2018-05-25T08:03:57.002Z,1008.23
2018-05-25T08:04:57.019Z,1008.21
2018-05-25T08:05:57.046Z,1008.18
2018-05-25T08:06:57.082Z,1008.2
2018-05-25T08:07:57.090Z,1008.19
2018-05-25T08:08:57.117Z,1008.23
2018-05-25T08:09:57.147Z,1008.2
2018-05-25T08:10:57.166Z,1008.21
2018-05-25T08:11:57.219Z,1008.18
2018-05-25T08:12:57.214Z,1008.19
2018-05-25T08:13:57.231Z,1008.19
2018-05-25T08:14:57.258Z,1008.2
2018-05-25T08:15:57.285Z,1008.19
2018-05-25T08:16:57.307Z,1008.15
2018-05-25T08:17:57.331Z,1008.14
2018-05-25T08:18:57.352Z,1008.15
2018-05-25T08:19:57.383Z,1008.13
2018-05-25T08:22:42.960Z,1008.16
2018-05-25T08:23:42.942Z,1008.16
2018-05-25T08:24:42.971Z,1008.11
2018-05-25T08:25:42.995Z,1008.14
2018-05-25T08:26:43.023Z,1008.16
2018-05-25T08:27:43.045Z,1008.16
2018-05-25T08:28:43.064Z,1008.19
2018-05-25T08:29:43.097Z,1008.2
2018-05-25T08:30:43.116Z,1008.2
2018-05-25T08:31:43.140Z,1008.18
2018-05-25T08:32:43.162Z,1008.18
2018-05-25T08:33:43.193Z,1008.21
2018-05-25T08:34:43.219Z,1008.23
2018-05-25T08:35:43.243Z,1008.21
2018-05-25T08:36:43.269Z,1008.19
2018-05-25T08:37:43.285Z,1008.23
2018-05-25T08:38:43.309Z,1008.19
2018-05-25T08:39:43.333Z,1008.13
2018-05-25T08:40:43.365Z,1008.16
2018-05-25T08:41:43.386Z,1008.22
2018-05-25T08:42:43.412Z,1008.19
2018-05-25T08:43:43.445Z,1008.15
2018-05-25T08:44:43.463Z,1008.16
2018-05-25T08:45:43.484Z,1008.2
2018-05-25T08:46:43.512Z,1008.18
2018-05-25T08:47:43.538Z,1008.17
2018-05-25T08:48:43.564Z,1008.18
2018-05-25T08:49:43.589Z,1008.18
2018-05-25T08:50:43.624Z,1008.17
2018-05-25T08:51:43.632Z,1008.22
2018-05-25T08:52:43.660Z,1008.19
2018-05-25T08:53:43.689Z,1008.14
2018-05-25T08:54:43.707Z,1008.12
2018-05-25T08:55:43.736Z,1008.2
2018-05-25T08:56:43.761Z,1008.18
2018-05-25T08:57:43.791Z,1008.17
2018-05-25T08:58:43.818Z,1008.17
2018-05-25T08:59:43.834Z,1008.17
2018-05-25T09:00:43.860Z,1008.17
2018-05-25T09:01:43.883Z,1008.18
2018-05-25T09:02:43.912Z,1008.16
2018-05-25T09:03:43.936Z,1008.14
2018-05-25T09:04:43.961Z,1008.16
2018-05-25T09:05:43.993Z,1008.12
2018-05-25T09:06:44.036Z,1008.12
2018-05-25T09:07:44.045Z,1008.13
2018-05-25T09:08:44.068Z,1008.13
2018-05-25T09:09:44.092Z,1008.12
2018-05-25T09:10:44.118Z,1008.16
2018-05-25T09:11:44.140Z,1008.13
2018-05-25T09:12:44.170Z,1008.09
2018-05-25T09:13:44.199Z,1008.1
2018-05-25T09:14:44.220Z,1008.08
2018-05-25T09:15:44.252Z,1008.09
2018-05-25T09:16:44.273Z,1008.14
2018-05-25T09:17:44.305Z,1008.14
2018-05-25T09:18:44.321Z,1008.07
2018-05-25T09:19:44.352Z,1008.06
2018-05-25T09:20:44.379Z,1008.08
2018-05-25T09:21:44.526Z,1008.08
2018-05-25T09:22:44.430Z,1008.11
2018-05-25T09:23:44.464Z,1008.11
2018-05-25T09:24:44.497Z,1008.08
2018-05-25T09:25:44.515Z,1008.11
2018-05-25T09:26:44.538Z,1008.13
2018-05-25T09:27:44.561Z,1008.15
2018-05-25T09:28:44.585Z,1008.08
2018-05-25T09:29:44.615Z,1008.06
2018-05-25T09:30:44.646Z,1008.09
2018-05-25T09:31:44.667Z,1008.11
2018-05-25T09:32:44.691Z,1008.12
2018-05-25T09:33:44.719Z,1008.17
2018-05-25T09:34:44.760Z,1008.17
2018-05-25T09:35:44.776Z,1008.18
2018-05-25T09:36:44.803Z,1008.11
2018-05-25T09:37:44.841Z,1008.15
2018-05-25T09:38:44.854Z,1008.12
2018-05-25T09:39:44.884Z,1008.17
2018-05-25T09:40:44.916Z,1008.15
2018-05-25T09:41:44.947Z,1008.18
2018-05-25T09:42:44.967Z,1008.18
2018-05-25T09:43:44.992Z,1008.21
2018-05-25T09:44:45.021Z,1008.17
2018-05-25T09:45:45.051Z,1008.13
2018-05-25T09:46:45.080Z,1008.12
2018-05-25T09:47:45.103Z,1008.13
2018-05-25T09:48:45.179Z,1008.13
2018-05-25T09:49:45.160Z,1008.16
2018-05-25T09:50:45.187Z,1008.13
2018-05-25T09:51:45.212Z,1008.12
2018-05-25T09:52:45.249Z,1008.13
2018-05-25T09:53:45.269Z,1008.17
2018-05-25T09:54:45.298Z,1008.16
2018-05-25T09:55:45.330Z,1008.2
2018-05-25T09:56:45.358Z,1008.15
2018-05-25T09:57:45.377Z,1008.14
2018-05-25T09:58:45.411Z,1008.18
2018-05-25T09:59:45.441Z,1008.16
2018-05-25T10:00:45.462Z,1008.14
2018-05-25T10:01:45.492Z,1008.18
2018-05-25T10:02:45.520Z,1008.14
2018-05-25T10:03:45.544Z,1008.17
2018-05-25T10:04:45.574Z,1008.12
2018-05-25T10:05:45.606Z,1008.15
2018-05-25T10:06:45.631Z,1008.12
2018-05-25T10:07:45.666Z,1008.14
2018-05-25T10:08:45.690Z,1008.1
2018-05-25T10:09:45.728Z,1008.08
2018-05-25T10:10:45.745Z,1008.05
2018-05-25T10:11:45.781Z,1007.98
2018-05-25T10:12:45.807Z,1008
2018-05-25T10:13:45.834Z,1008
2018-05-25T10:14:45.865Z,1008.03
2018-05-25T10:15:45.887Z,1007.99
2018-05-25T10:16:45.967Z,1008.02
2018-05-25T10:17:45.951Z,1007.98
2018-05-25T10:18:45.972Z,1008
2018-05-25T10:19:46.004Z,1008.02
2018-05-25T10:20:46.032Z,1008.01
2018-05-25T10:21:46.059Z,1008.01
2018-05-25T10:22:46.087Z,1008.03
2018-05-25T10:23:46.119Z,1008.04
2018-05-25T10:24:46.152Z,1007.99
2018-05-25T10:25:46.177Z,1007.95
2018-05-25T10:26:46.256Z,1007.95
2018-05-25T10:27:46.234Z,1007.99
2018-05-25T10:28:46.285Z,1007.95
2018-05-25T10:29:46.300Z,1007.96
2018-05-25T10:30:46.320Z,1007.98
2018-05-25T10:31:46.405Z,1008
2018-05-25T10:32:46.386Z,1007.95
2018-05-25T10:33:46.409Z,1007.99
2018-05-25T10:34:46.438Z,1007.98
2018-05-25T10:35:46.477Z,1007.95
2018-05-25T10:36:46.503Z,1007.99
2018-05-25T10:37:46.534Z,1007.96
2018-05-25T10:38:46.569Z,1007.96
2018-05-25T10:39:46.595Z,1007.98
2018-05-25T10:40:46.621Z,1007.95
2018-05-25T10:41:46.649Z,1007.91
2018-05-25T10:42:46.682Z,1007.92
2018-05-25T10:43:46.706Z,1007.94
2018-05-25T10:44:46.739Z,1007.92
2018-05-25T10:45:46.772Z,1007.99
2018-05-25T10:46:46.798Z,1008.04
2018-05-25T10:47:46.834Z,1008.01
2018-05-25T10:48:46.864Z,1007.95
2018-05-25T10:49:46.893Z,1007.95
2018-05-25T10:50:46.925Z,1007.95
2018-05-25T10:51:46.956Z,1007.92
2018-05-25T10:52:46.981Z,1007.97
2018-05-25T10:53:47.013Z,1007.96
2018-05-25T10:54:47.038Z,1007.99
2018-05-25T10:55:47.079Z,1007.95
2018-05-25T10:56:47.103Z,1007.96
2018-05-25T10:57:47.141Z,1007.98
2018-05-25T10:58:47.172Z,1007.94
2018-05-25T10:59:47.191Z,1007.97
2018-05-25T11:00:47.222Z,1007.96
2018-05-25T11:01:47.253Z,1007.9
2018-05-25T11:02:47.285Z,1007.89
2018-05-25T11:03:47.364Z,1007.89
2018-05-25T11:04:47.346Z,1007.9
2018-05-25T11:05:47.379Z,1007.92
2018-05-25T11:06:47.414Z,1007.92
2018-05-25T11:07:47.438Z,1007.9
2018-05-25T11:08:47.468Z,1007.89
2018-05-25T11:09:47.503Z,1007.88
2018-05-25T11:10:47.538Z,1007.87
2018-05-25T11:11:47.573Z,1007.84
2018-05-25T11:12:47.603Z,1007.86
2018-05-25T11:13:47.626Z,1007.81
2018-05-25T11:14:47.657Z,1007.83
2018-05-25T11:15:47.688Z,1007.79
2018-05-25T11:16:47.723Z,1007.76
2018-05-25T11:17:47.750Z,1007.78
2018-05-25T11:18:47.791Z,1007.75
2018-05-25T11:19:47.818Z,1007.77
2018-05-25T11:20:47.845Z,1007.79
2018-05-25T11:21:47.878Z,1007.73
2018-05-25T11:22:47.912Z,1007.74
2018-05-25T11:23:47.940Z,1007.71
2018-05-25T11:24:47.974Z,1007.75
2018-05-25T11:25:48.005Z,1007.74
2018-05-25T11:26:48.041Z,1007.72
2018-05-25T11:27:48.072Z,1007.69
2018-05-25T11:28:48.104Z,1007.65
2018-05-25T11:29:48.150Z,1007.65
2018-05-25T11:30:48.167Z,1007.65
2018-05-25T11:31:48.197Z,1007.62
2018-05-25T11:32:48.225Z,1007.66
2018-05-25T11:33:48.256Z,1007.66
2018-05-25T11:34:48.288Z,1007.6
2018-05-25T11:35:48.322Z,1007.62
2018-05-25T11:36:48.358Z,1007.65
2018-05-25T11:37:48.389Z,1007.59
2018-05-25T11:38:48.416Z,1007.59
2018-05-25T11:39:48.447Z,1007.61
2018-05-25T11:40:48.487Z,1007.64
2018-05-25T11:41:48.516Z,1007.62
2018-05-25T11:42:48.554Z,1007.6
2018-05-25T11:43:48.576Z,1007.61
2018-05-25T11:44:48.619Z,1007.6
2018-05-25T11:45:48.647Z,1007.61
2018-05-25T11:46:48.683Z,1007.58
2018-05-25T11:47:48.713Z,1007.6
2018-05-25T11:48:48.746Z,1007.61
2018-05-25T11:49:48.776Z,1007.56
2018-05-25T11:50:48.802Z,1007.54
2018-05-25T11:51:48.834Z,1007.57
2018-05-25T11:52:48.872Z,1007.55
2018-05-25T11:53:48.904Z,1007.57
2018-05-25T11:54:48.940Z,1007.58
2018-05-25T11:55:48.968Z,1007.63
2018-05-25T11:56:49.006Z,1007.49
2018-05-25T11:57:49.035Z,1007.6
2018-05-25T11:58:49.063Z,1007.59
2018-05-25T11:59:49.103Z,1007.51
2018-05-25T12:00:49.132Z,1007.57
2018-05-25T12:01:49.195Z,1007.53
2018-05-25T12:02:49.199Z,1007.54
2018-05-25T12:03:49.232Z,1007.61
2018-05-25T12:04:49.273Z,1007.63
2018-05-25T12:05:49.301Z,1007.67
2018-05-25T12:06:49.331Z,1007.69
2018-05-25T12:07:49.363Z,1007.6
2018-05-25T12:08:49.393Z,1007.58
2018-05-25T12:09:49.428Z,1007.59
2018-05-25T12:10:49.464Z,1007.56